createdAt,value
2023-10-09T00:00:51.870Z,20.40
2023-10-09T00:03:23.990Z,20.30
2023-10-09T00:05:55.315Z,20.30
2023-10-09T00:08:28.100Z,20.30
2023-10-09T00:11:00.497Z,20.30
2023-10-09T00:13:31.752Z,20.30
2023-10-09T00:16:15.668Z,20.30
2023-10-09T00:18:47.968Z,20.30
2023-10-09T00:21:21.583Z,20.30
2023-10-09T00:24:15.064Z,20.20
2023-10-09T00:26:48.322Z,20.30
2023-10-09T00:29:23.214Z,20.20
2023-10-09T00:31:56.735Z,20.20
2023-10-09T00:34:27.824Z,20.20
2023-10-09T00:36:59.107Z,20.20
2023-10-09T00:39:42.842Z,20.20
2023-10-09T00:42:15.794Z,20.20
2023-10-09T00:44:45.113Z,20.10
2023-10-09T00:47:24.173Z,20.10
2023-10-09T00:50:01.052Z,20.10
2023-10-09T00:52:38.505Z,20.10
2023-10-09T00:55:15.568Z,20.20
2023-10-09T00:57:51.540Z,20.10
2023-10-09T01:00:34.106Z,20.10
2023-10-09T01:03:21.164Z,20.10
2023-10-09T01:05:58.656Z,20.10
2023-10-09T01:08:44.835Z,20.10
2023-10-09T01:11:19.741Z,20.10
2023-10-09T01:14:12.649Z,20.10
2023-10-09T01:16:44.086Z,20.10
2023-10-09T01:19:25.419Z,20.10
2023-10-09T01:21:54.924Z,20.00
2023-10-09T01:24:28.000Z,20.00
2023-10-09T01:26:58.799Z,20.00
2023-10-09T01:29:30.990Z,20.00
2023-10-09T01:32:03.417Z,20.00
2023-10-09T01:34:45.055Z,20.00
2023-10-09T01:37:20.406Z,20.00
2023-10-09T01:39:52.875Z,20.00
2023-10-09T01:42:36.249Z,20.00
2023-10-09T01:45:12.414Z,20.00
2023-10-09T01:47:41.706Z,20.00
2023-10-09T01:50:21.115Z,20.00
2023-10-09T01:52:52.709Z,20.00
2023-10-09T01:55:35.131Z,20.00
2023-10-09T01:58:07.674Z,19.90
2023-10-09T02:00:44.331Z,19.90
2023-10-09T02:03:25.193Z,19.90
2023-10-09T02:06:17.965Z,19.90
2023-10-09T02:08:50.991Z,19.90
2023-10-09T02:11:37.285Z,19.90
2023-10-09T02:14:20.299Z,19.90
2023-10-09T02:19:50.912Z,19.90
2023-10-09T02:22:20.407Z,19.90
2023-10-09T02:24:59.141Z,19.90
2023-10-09T02:27:46.288Z,19.90
2023-10-09T02:30:20.927Z,19.90
2023-10-09T02:32:54.855Z,19.90
2023-10-09T02:35:32.587Z,19.90
2023-10-09T02:38:01.792Z,19.90
2023-10-09T02:40:34.303Z,19.90
2023-10-09T02:43:03.922Z,19.80
2023-10-09T02:45:37.306Z,19.80
2023-10-09T02:48:12.516Z,19.80
2023-10-09T02:50:46.103Z,19.90
2023-10-09T02:53:20.157Z,19.80
2023-10-09T02:56:12.885Z,19.80
2023-10-09T02:58:44.068Z,19.80
2023-10-09T03:01:14.870Z,19.80
2023-10-09T03:03:48.238Z,19.80
2023-10-09T03:06:25.969Z,19.80
2023-10-09T03:08:55.982Z,19.80
2023-10-09T03:11:27.833Z,19.80
2023-10-09T03:13:57.947Z,19.80
2023-10-09T03:16:28.397Z,19.80
2023-10-09T03:18:58.109Z,19.80
2023-10-09T03:21:28.627Z,19.80
2023-10-09T03:23:57.954Z,19.80
2023-10-09T03:26:27.247Z,19.80
2023-10-09T03:28:56.366Z,19.80
2023-10-09T03:31:25.569Z,19.80
2023-10-09T03:33:54.769Z,19.80
2023-10-09T03:36:28.028Z,19.80
2023-10-09T03:38:59.433Z,19.80
2023-10-09T03:41:30.370Z,19.70
2023-10-09T03:43:59.912Z,19.70
2023-10-09T03:46:34.373Z,19.70
2023-10-09T03:49:12.059Z,19.70
2023-10-09T03:51:43.408Z,19.70
2023-10-09T03:54:15.198Z,19.70
2023-10-09T03:56:44.683Z,19.70
2023-10-09T03:59:17.336Z,19.70
2023-10-09T04:01:47.172Z,19.70
2023-10-09T04:04:17.299Z,19.70
2023-10-09T04:06:47.835Z,19.70
2023-10-09T04:09:36.885Z,19.60
2023-10-09T04:12:21.960Z,19.60
2023-10-09T04:21:20.390Z,19.60
2023-10-09T04:24:10.074Z,19.60
2023-10-09T04:26:45.618Z,19.60
2023-10-09T04:29:19.754Z,19.60
2023-10-09T04:31:52.977Z,19.60
2023-10-09T04:34:29.875Z,19.60
2023-10-09T04:37:01.982Z,19.60
2023-10-09T04:39:38.303Z,19.60
2023-10-09T04:42:27.910Z,19.60
2023-10-09T04:45:17.074Z,19.60
2023-10-09T04:47:59.501Z,19.60
2023-10-09T04:50:48.974Z,19.60
2023-10-09T04:53:29.860Z,19.60
2023-10-09T04:55:58.822Z,19.60
2023-10-09T04:58:29.283Z,19.60
2023-10-09T05:01:15.941Z,19.60
2023-10-09T05:03:53.752Z,19.50
2023-10-09T05:06:22.691Z,19.60
2023-10-09T05:08:55.530Z,19.50
2023-10-09T05:11:54.336Z,19.50
2023-10-09T05:14:40.564Z,19.50
2023-10-09T05:17:17.252Z,19.50
2023-10-09T05:20:18.598Z,19.50
2023-10-09T05:22:58.363Z,19.50
2023-10-09T05:25:56.672Z,19.50
2023-10-09T05:28:32.855Z,19.50
2023-10-09T05:31:09.709Z,19.50
2023-10-09T05:33:38.892Z,19.50
2023-10-09T05:36:33.248Z,19.50
2023-10-09T05:39:19.506Z,19.50
2023-10-09T05:41:49.307Z,19.50
2023-10-09T05:44:32.427Z,19.50
2023-10-09T05:47:20.819Z,19.50
2023-10-09T05:49:56.304Z,19.50
2023-10-09T05:52:34.138Z,19.50
2023-10-09T05:55:42.207Z,19.50
2023-10-09T05:58:28.714Z,19.40
2023-10-09T06:01:15.344Z,19.50
2023-10-09T06:03:59.784Z,19.40
2023-10-09T06:06:46.067Z,19.50
2023-10-09T06:09:30.395Z,19.40
2023-10-09T06:12:13.479Z,19.40
2023-10-09T06:14:59.075Z,19.40
2023-10-09T06:17:44.525Z,19.40
2023-10-09T06:20:29.278Z,19.40
2023-10-09T06:23:16.893Z,19.40
2023-10-09T06:25:52.751Z,19.40
2023-10-09T06:28:34.471Z,19.40
2023-10-09T06:31:23.879Z,19.40
2023-10-09T06:34:16.813Z,19.40
2023-10-09T06:36:54.526Z,19.40
2023-10-09T06:39:49.858Z,19.40
2023-10-09T06:42:35.471Z,19.40
2023-10-09T06:45:08.068Z,19.40
2023-10-09T06:47:42.573Z,19.40
2023-10-09T06:50:25.929Z,19.40
2023-10-09T06:53:25.393Z,19.40
2023-10-09T06:56:06.364Z,19.40
2023-10-09T06:58:44.103Z,19.40
2023-10-09T07:01:26.649Z,19.40
2023-10-09T07:04:01.392Z,19.40
2023-10-09T07:06:47.907Z,19.50
2023-10-09T07:09:20.859Z,19.40
2023-10-09T07:12:11.074Z,19.50
2023-10-09T07:14:58.003Z,19.40
2023-10-09T07:17:43.758Z,19.50
2023-10-09T07:20:37.263Z,19.50
2023-10-09T07:23:19.172Z,19.50
2023-10-09T07:25:59.742Z,19.50
2023-10-09T07:28:38.283Z,19.50
2023-10-09T07:31:10.683Z,19.50
2023-10-09T07:33:58.517Z,19.50
2023-10-09T07:36:39.285Z,19.50
2023-10-09T07:39:18.421Z,19.50
2023-10-09T07:42:03.284Z,19.50
2023-10-09T07:44:44.064Z,19.50
2023-10-09T07:47:18.514Z,19.50
2023-10-09T07:49:55.019Z,19.50
2023-10-09T07:52:24.921Z,19.50
2023-10-09T07:55:03.155Z,19.50
2023-10-09T07:57:40.833Z,19.50
2023-10-09T08:00:35.007Z,19.60
2023-10-09T08:03:25.378Z,19.60
2023-10-09T08:06:08.271Z,19.60
2023-10-09T08:09:03.489Z,19.60
2023-10-09T08:11:55.406Z,19.60
2023-10-09T08:14:39.795Z,19.60
2023-10-09T08:17:16.836Z,19.60
2023-10-09T08:19:59.367Z,19.60
2023-10-09T08:22:52.383Z,19.70
2023-10-09T08:25:33.371Z,19.70
2023-10-09T08:28:21.796Z,19.70
2023-10-09T08:31:04.553Z,19.70
2023-10-09T08:36:24.061Z,19.80
2023-10-09T08:38:59.450Z,19.80
2023-10-09T08:41:31.464Z,19.80
2023-10-09T08:44:01.470Z,19.80
2023-10-09T08:46:32.489Z,19.80
2023-10-09T08:49:06.186Z,19.80
2023-10-09T08:51:36.725Z,19.80
2023-10-09T08:54:12.703Z,19.90
2023-10-09T08:56:50.868Z,19.90
2023-10-09T08:59:21.601Z,19.90
2023-10-09T09:01:53.607Z,19.90
2023-10-09T09:04:40.860Z,20.00
2023-10-09T09:07:27.720Z,20.00
2023-10-09T09:10:05.193Z,20.00
2023-10-09T09:12:39.181Z,20.00
2023-10-09T09:15:22.060Z,20.10
2023-10-09T09:17:53.110Z,20.10
2023-10-09T09:20:27.276Z,20.10
2023-10-09T09:22:58.914Z,20.10
2023-10-09T09:25:45.856Z,20.20
2023-10-09T09:28:20.970Z,20.20
2023-10-09T09:30:53.078Z,20.20
2023-10-09T09:33:41.394Z,20.30
2023-10-09T09:36:12.685Z,20.30
2023-10-09T09:38:49.332Z,20.30
2023-10-09T09:41:25.790Z,20.30
2023-10-09T09:43:58.585Z,20.30
2023-10-09T09:46:34.743Z,20.40
2023-10-09T09:49:17.791Z,20.40
2023-10-09T09:51:48.309Z,20.40
2023-10-09T09:54:17.805Z,20.50
2023-10-09T09:56:52.264Z,20.50
2023-10-09T09:59:25.360Z,20.50
2023-10-09T10:01:59.174Z,20.50
2023-10-09T10:04:36.686Z,20.50
2023-10-09T10:07:10.633Z,20.60
2023-10-09T10:09:41.850Z,20.60
2023-10-09T10:12:12.329Z,20.60
2023-10-09T10:15:00.493Z,20.60
2023-10-09T10:17:30.774Z,20.60
2023-10-09T10:20:21.298Z,20.70
2023-10-09T10:22:52.220Z,20.70
2023-10-09T10:25:44.139Z,20.70
2023-10-09T10:28:39.612Z,20.70
2023-10-09T10:31:10.748Z,20.80
2023-10-09T10:34:08.381Z,20.80
2023-10-09T10:36:43.593Z,20.80
2023-10-09T10:39:20.878Z,20.80
2023-10-09T10:41:56.989Z,20.90
2023-10-09T10:44:37.597Z,20.90
2023-10-09T10:47:23.239Z,20.90
2023-10-09T10:49:53.309Z,20.90
2023-10-09T10:52:43.503Z,20.90
2023-10-09T10:55:40.452Z,21.00
2023-10-09T10:58:25.080Z,21.00
2023-10-09T11:01:13.272Z,21.00
2023-10-09T12:37:45.377Z,22.10
2023-10-09T12:40:15.103Z,22.20
2023-10-09T12:42:44.308Z,22.20
2023-10-09T12:45:14.127Z,22.20
2023-10-09T12:47:43.849Z,22.30
2023-10-09T12:50:15.299Z,22.30
2023-10-09T12:52:49.595Z,22.40
2023-10-09T12:55:21.725Z,22.40
2023-10-09T12:57:52.991Z,22.40
2023-10-09T13:00:26.804Z,22.50
2023-10-09T13:02:56.024Z,22.50
2023-10-09T13:05:28.411Z,22.60
2023-10-09T13:07:58.983Z,22.60
2023-10-09T13:10:32.813Z,22.60
2023-10-09T13:13:01.923Z,22.60
2023-10-09T13:15:43.940Z,22.70
2023-10-09T13:18:13.852Z,22.70
2023-10-09T13:20:43.067Z,22.70
2023-10-09T13:23:15.967Z,22.70
2023-10-09T13:25:45.863Z,22.80
2023-10-09T13:28:21.972Z,22.80
2023-10-09T13:30:51.988Z,22.80
2023-10-09T13:33:23.256Z,22.90
2023-10-09T13:35:52.949Z,22.90
2023-10-09T13:38:25.817Z,22.90
2023-10-09T13:41:02.554Z,22.90
2023-10-09T13:43:32.112Z,22.90
2023-10-09T13:46:05.204Z,23.00
2023-10-09T13:48:39.321Z,23.00
2023-10-09T13:51:14.999Z,23.00
2023-10-09T13:53:49.225Z,23.00
2023-10-09T13:56:20.617Z,23.10
2023-10-09T13:58:52.039Z,23.10
2023-10-09T14:01:29.270Z,23.10
2023-10-09T14:04:00.148Z,23.10
2023-10-09T14:06:33.406Z,23.10
2023-10-09T14:09:06.496Z,23.20
2023-10-09T14:11:39.026Z,23.20
2023-10-09T14:14:12.515Z,23.20
2023-10-09T14:16:44.454Z,23.20
2023-10-09T14:19:15.739Z,23.20
2023-10-09T14:21:44.888Z,23.20
2023-10-09T14:24:19.647Z,23.30
2023-10-09T14:26:53.152Z,23.30
2023-10-09T14:29:23.938Z,23.30
2023-10-09T14:32:02.354Z,23.30
2023-10-09T14:34:33.895Z,23.30
2023-10-09T14:37:03.262Z,23.30
2023-10-09T14:39:38.069Z,23.30
2023-10-09T14:42:10.726Z,23.40
2023-10-09T14:44:40.237Z,23.40
2023-10-09T14:47:09.878Z,23.40
2023-10-09T14:49:44.920Z,23.40
2023-10-09T14:52:17.863Z,23.40
2023-10-09T14:54:51.817Z,23.40
2023-10-09T14:57:21.121Z,23.40
2023-10-09T14:59:50.753Z,23.40
2023-10-09T15:02:19.987Z,23.40
2023-10-09T15:04:49.108Z,23.40
2023-10-09T15:07:30.050Z,23.50
2023-10-09T15:10:10.882Z,23.50
2023-10-09T15:12:46.639Z,23.50
2023-10-09T15:15:15.967Z,23.50
2023-10-09T15:17:47.182Z,23.50
2023-10-09T15:20:17.026Z,23.50
2023-10-09T15:22:47.523Z,23.50
2023-10-09T15:25:18.669Z,23.50
2023-10-09T15:27:48.106Z,23.50
2023-10-09T15:30:18.346Z,23.60
2023-10-09T15:32:47.912Z,23.50
2023-10-09T15:35:17.071Z,23.50
2023-10-09T15:37:47.373Z,23.60
2023-10-09T15:40:19.854Z,23.60
2023-10-09T15:42:51.544Z,23.60
2023-10-09T15:45:23.098Z,23.60
2023-10-09T15:47:53.476Z,23.60
2023-10-09T15:50:25.420Z,23.60
2023-10-09T15:52:55.473Z,23.60
2023-10-09T15:55:26.228Z,23.60
2023-10-09T15:57:55.813Z,23.60
2023-10-09T16:00:29.856Z,23.60
2023-10-09T16:03:02.198Z,23.60
2023-10-09T16:05:31.883Z,23.60
2023-10-09T16:08:01.897Z,23.60
2023-10-09T16:10:33.209Z,23.60
2023-10-09T16:13:02.439Z,23.60
2023-10-09T16:15:31.596Z,23.60
2023-10-09T16:18:04.439Z,23.60
2023-10-09T16:20:34.786Z,23.60
2023-10-09T16:23:05.960Z,23.60
2023-10-09T16:25:36.994Z,23.60
2023-10-09T16:28:07.026Z,23.60
2023-10-09T16:30:37.906Z,23.60
2023-10-09T16:33:07.441Z,23.60
2023-10-09T16:35:38.979Z,23.60
2023-10-09T16:38:13.599Z,23.60
2023-10-09T16:40:48.196Z,23.60
2023-10-09T16:43:18.848Z,23.60
2023-10-09T16:45:48.831Z,23.60
2023-10-09T16:48:18.161Z,23.60
2023-10-09T16:50:48.674Z,23.60
2023-10-09T16:53:18.502Z,23.60
2023-10-09T16:55:50.110Z,23.60
2023-10-09T16:58:19.265Z,23.60
2023-10-09T17:00:48.431Z,23.60
2023-10-09T17:03:19.158Z,23.50
2023-10-09T17:05:59.389Z,23.50
2023-10-09T17:08:30.961Z,23.50
2023-10-09T17:11:04.546Z,23.50
2023-10-09T17:13:34.355Z,23.50
2023-10-09T17:16:04.574Z,23.50
2023-10-09T17:18:33.766Z,23.50
2023-10-09T17:21:04.907Z,23.40
2023-10-09T17:23:34.985Z,23.50
2023-10-09T17:26:06.400Z,23.50
2023-10-09T17:28:35.513Z,23.40
2023-10-09T17:31:05.623Z,23.40
2023-10-09T17:33:35.225Z,23.40
2023-10-09T17:36:07.388Z,23.40
2023-10-09T17:38:37.376Z,23.40
2023-10-09T17:41:11.045Z,23.30
2023-10-09T17:43:41.196Z,23.30
2023-10-09T17:46:13.253Z,23.30
2023-10-09T17:48:45.031Z,23.30
2023-10-09T17:51:16.057Z,23.30
2023-10-09T17:53:47.472Z,23.30
2023-10-09T17:56:20.372Z,23.30
2023-10-09T17:58:52.474Z,23.20
2023-10-09T18:01:26.099Z,23.20
2023-10-09T18:04:00.367Z,23.20
2023-10-09T18:06:31.658Z,23.20
2023-10-09T18:09:12.977Z,23.20
2023-10-09T18:11:46.075Z,23.10
2023-10-09T18:14:16.176Z,23.10
2023-10-09T18:16:46.539Z,23.10
2023-10-09T18:19:16.363Z,23.10
2023-10-09T18:21:45.589Z,23.10
2023-10-09T18:24:16.146Z,23.10
2023-10-09T18:26:47.765Z,23.10
2023-10-09T18:29:18.255Z,23.00
2023-10-09T18:31:47.780Z,23.10
2023-10-09T18:34:17.445Z,23.00
2023-10-09T18:36:47.949Z,23.00
2023-10-09T18:39:23.236Z,23.00
2023-10-09T18:41:55.386Z,23.00
2023-10-09T18:44:24.867Z,22.90
2023-10-09T18:46:55.453Z,22.90
2023-10-09T18:49:24.771Z,22.90
2023-10-09T18:51:54.117Z,22.90
2023-10-09T18:54:23.956Z,22.90
2023-10-09T21:00:20.795Z,22.00
2023-10-09T21:02:53.303Z,22.00
2023-10-09T21:05:26.637Z,22.00
2023-10-09T21:07:56.962Z,22.00
2023-10-09T21:10:26.930Z,22.00
2023-10-09T21:12:56.477Z,21.90
2023-10-09T21:15:28.181Z,22.00
2023-10-09T21:17:59.788Z,21.90
2023-10-09T21:20:31.564Z,21.90
2023-10-09T21:23:02.559Z,21.90
2023-10-09T21:25:33.032Z,21.80
2023-10-09T21:28:03.072Z,21.80
2023-10-09T21:30:32.894Z,21.80
2023-10-09T21:33:03.960Z,21.80
2023-10-09T21:35:33.978Z,21.80
2023-10-09T21:38:03.936Z,21.80
2023-10-09T21:40:34.841Z,21.80
2023-10-09T21:43:08.339Z,21.80
2023-10-09T21:45:46.425Z,21.70
2023-10-09T21:48:18.689Z,21.70
2023-10-09T21:50:48.385Z,21.70
2023-10-09T21:53:18.872Z,21.70
2023-10-09T21:55:48.702Z,21.60
2023-10-09T21:58:18.460Z,21.60
2023-10-09T22:00:48.799Z,21.60
2023-10-09T22:03:19.999Z,21.50
2023-10-09T22:05:49.722Z,21.50
2023-10-09T22:08:20.226Z,21.50
2023-10-09T22:10:49.872Z,21.50
2023-10-09T22:13:20.254Z,21.60
2023-10-09T22:15:50.201Z,21.50
2023-10-09T22:37:20.689Z,21.40
2023-10-09T22:39:52.894Z,21.30
2023-10-09T22:42:24.112Z,21.30
2023-10-09T22:44:57.333Z,21.20
2023-10-09T22:47:34.257Z,21.20
2023-10-09T22:50:18.798Z,21.20
2023-10-09T22:52:48.929Z,21.20
2023-10-09T22:55:21.190Z,21.20
2023-10-09T22:57:55.860Z,21.10
2023-10-09T23:00:38.028Z,21.10
2023-10-09T23:03:10.710Z,21.10
2023-10-09T23:05:46.563Z,21.10
2023-10-09T23:08:20.217Z,21.10
2023-10-09T23:10:53.904Z,21.10
2023-10-09T23:13:36.238Z,21.10
2023-10-09T23:16:15.690Z,21.00
2023-10-09T23:19:07.353Z,21.00
2023-10-09T23:21:53.901Z,21.00
2023-10-09T23:24:29.263Z,21.00
2023-10-09T23:27:02.067Z,21.00
2023-10-09T23:29:34.431Z,21.00
2023-10-09T23:32:18.713Z,21.00
2023-10-09T23:34:54.007Z,20.90
2023-10-09T23:37:34.633Z,20.90
2023-10-09T23:40:09.124Z,20.90
2023-10-09T23:42:39.679Z,20.90
2023-10-09T23:45:08.316Z,20.90
2023-10-09T23:47:42.585Z,20.80
2023-10-09T23:50:17.491Z,20.80
2023-10-09T23:52:48.073Z,20.80
2023-10-09T23:55:29.085Z,20.80
2023-10-09T23:57:59.709Z,20.80
